Time;durP1;ratioP1;P1;durP2;ratioP2;P2;SDS_P1;SDS_P2;PMS_P1;PMS_P2;Temp;Humidity;BMP_temperature;BMP_pressure;BME280_temperature;BME280_humidity;BME280_pressure;Samples;Min_cycle;Max_cycle;Signal;HPM_P1;HPM_P2
2024/04/01 00:00:31;;;;;;;1999.90;999.90;;;13.30;88.70;;;;;;6154754;23;20159;-68
2024/04/01 00:02:57;;;;;;;1999.90;999.90;;;13.30;88.70;;;;;;6154567;23;20170;-69
2024/04/01 00:05:23;;;;;;;1999.90;999.90;;;13.40;88.80;;;;;;6128740;23;20169;-68
2024/04/01 00:07:51;;;;;;;1999.90;999.90;;;13.40;88.80;;;;;;6153195;23;20154;-68
2024/04/01 00:10:20;;;;;;;1999.90;999.90;;;13.40;88.60;;;;;;6154435;23;20682;-69
2024/04/01 00:12:46;;;;;;;1999.90;999.90;;;13.40;88.60;;;;;;6154237;23;20190;-69
2024/04/01 00:15:11;;;;;;;1999.90;999.90;;;13.40;88.60;;;;;;6154157;23;20225;-68
2024/04/01 00:17:37;;;;;;;1999.90;999.90;;;13.30;88.60;;;;;;6126927;23;20543;-69
2024/04/01 00:20:03;;;;;;;1999.90;999.90;;;13.30;88.70;;;;;;6128210;23;20189;-69
2024/04/01 00:22:29;;;;;;;1999.90;999.90;;;13.20;88.60;;;;;;6154156;23;20250;-69
2024/04/01 00:24:54;;;;;;;1999.90;999.90;;;13.20;88.70;;;;;;6154557;23;20230;-69
2024/04/01 00:27:20;;;;;;;1999.90;999.90;;;13.20;88.90;;;;;;6153434;23;20230;-68
2024/04/01 00:29:46;;;;;;;1999.90;999.90;;;13.30;88.90;;;;;;6154214;23;20677;-69
2024/04/01 00:32:12;;;;;;;1999.90;999.90;;;13.30;88.80;;;;;;6154288;23;20175;-69
2024/04/01 00:34:37;;;;;;;1999.90;999.90;;;13.30;88.80;;;;;;6154270;23;20202;-68
2024/04/01 00:37:03;;;;;;;1999.90;999.90;;;13.30;88.70;;;;;;6127267;23;20162;-69
2024/04/01 00:39:29;;;;;;;1999.90;810.87;;;13.30;88.70;;;;;;6154201;23;20591;-69
2024/04/01 00:41:54;;;;;;;1999.90;999.90;;;13.40;88.80;;;;;;6154262;23;20194;-68
2024/04/01 00:44:20;;;;;;;1999.90;999.90;;;13.40;88.80;;;;;;6154410;23;20163;-68
2024/04/01 00:46:46;;;;;;;1999.90;999.90;;;13.40;88.80;;;;;;6153287;23;20159;-69
2024/04/01 00:49:12;;;;;;;1999.90;999.90;;;13.40;88.80;;;;;;6154219;23;20179;-68
2024/04/01 00:51:38;;;;;;;1999.90;999.90;;;13.40;88.80;;;;;;6154133;23;20149;-69
2024/04/01 00:54:06;;;;;;;1999.90;999.90;;;13.40;88.80;;;;;;6154353;23;20159;-69
2024/04/01 00:56:34;;;;;;;1999.90;999.90;;;13.40;88.80;;;;;;6127149;23;20592;-68
2024/04/01 00:59:03;;;;;;;1999.90;999.90;;;13.40;88.80;;;;;;6154095;23;20160;-68
2024/04/01 01:01:31;;;;;;;1999.90;999.90;;;13.40;89.00;;;;;;6154334;23;20154;-69
2024/04/01 01:03:58;;;;;;;1999.90;999.90;;;13.40;88.90;;;;;;6154142;23;20201;-69
2024/04/01 01:06:25;;;;;;;1999.90;999.90;;;13.40;88.80;;;;;;6153528;23;20150;-68
2024/04/01 01:08:50;;;;;;;1999.90;999.90;;;13.40;88.80;;;;;;6153940;23;20158;-69
2024/04/01 01:11:17;;;;;;;1999.90;999.90;;;13.40;88.80;;;;;;6128060;23;20162;-69
2024/04/01 01:13:42;;;;;;;1999.90;999.90;;;13.40;88.90;;;;;;6153618;23;20210;-69
2024/04/01 01:16:08;;;;;;;1999.90;999.90;;;13.40;89.00;;;;;;6152983;23;20158;-69
2024/04/01 01:18:34;;;;;;;1999.90;999.90;;;13.40;88.90;;;;;;6153822;23;20154;-69
2024/04/01 01:21:00;;;;;;;1919.23;813.60;;;13.40;89.00;;;;;;6128065;23;20182;-69
2024/04/01 01:23:25;;;;;;;1999.90;822.10;;;13.40;89.10;;;;;;6127750;23;20183;-69
2024/04/01 01:25:51;;;;;;;1933.17;809.60;;;13.40;89.20;;;;;;6154124;23;20150;-69
2024/04/01 01:28:17;;;;;;;1922.93;804.60;;;13.40;89.20;;;;;;6153337;23;20598;-69
2024/04/01 01:30:42;;;;;;;1972.47;819.57;;;13.40;89.20;;;;;;6156262;23;20176;-69
2024/04/01 01:33:08;;;;;;;1925.27;811.03;;;13.40;89.30;;;;;;6155941;23;20529;-69
2024/04/01 01:35:35;;;;;;;1999.90;814.87;;;13.30;89.30;;;;;;6156138;23;20486;-69
2024/04/01 01:38:02;;;;;;;1557.97;428.87;;;13.30;90.00;;;;;;6154621;23;20151;-69
2024/04/01 01:40:28;;;;;;;1945.63;565.70;;;13.30;89.70;;;;;;6156420;23;20605;-69
2024/04/01 01:42:54;;;;;;;1998.40;553.00;;;13.30;89.90;;;;;;6156060;23;20197;-69
2024/04/01 01:45:20;;;;;;;1831.20;506.97;;;13.30;90.00;;;;;;6156056;23;20162;-68
2024/04/01 01:47:45;;;;;;;1743.27;485.23;;;13.20;90.00;;;;;;6154849;23;20189;-69
2024/04/01 01:50:11;;;;;;;1650.37;469.60;;;13.20;90.10;;;;;;6155863;23;20229;-69
2024/04/01 01:52:37;;;;;;;1691.37;463.23;;;13.10;90.20;;;;;;6156022;23;20166;-69
2024/04/01 01:55:03;;;;;;;1851.70;530.80;;;13.10;90.30;;;;;;6155753;23;20152;-69
2024/04/01 01:57:30;;;;;;;1992.07;522.90;;;13.10;90.30;;;;;;6128553;23;20606;-68
2024/04/01 01:59:56;;;;;;;1806.23;465.77;;;13.10;90.30;;;;;;6155977;23;20157;-69
2024/04/01 02:02:22;;;;;;;1483.77;468.77;;;13.20;90.30;;;;;;6129567;23;20819;-69
2024/04/01 02:04:47;;;;;;;1764.80;512.23;;;13.10;90.30;;;;;;6156262;23;20154;-69
2024/04/01 02:07:13;;;;;;;1719.27;525.97;;;13.10;90.40;;;;;;6128755;23;20166;-69
2024/04/01 02:09:39;;;;;;;1648.57;511.90;;;13.10;90.50;;;;;;6155548;23;20181;-68
2024/04/01 02:12:07;;;;;;;1557.63;538.60;;;13.00;90.50;;;;;;6124686;23;20214;-69
2024/04/01 02:14:39;;;;;;;1891.37;531.77;;;13.10;90.60;;;;;;6125851;23;20556;-69
2024/04/01 02:17:07;;;;;;;1740.63;460.00;;;13.00;90.60;;;;;;6125364;23;20139;-69
2024/04/01 02:19:33;;;;;;;1813.63;475.67;;;13.10;90.70;;;;;;6124548;23;20244;-69
2024/04/01 02:21:59;;;;;;;1866.40;458.43;;;13.00;90.70;;;;;;6126006;23;20206;-69
2024/04/01 02:24:26;;;;;;;1830.63;492.30;;;13.00;90.70;;;;;;6126180;23;20159;-69
2024/04/01 02:26:55;;;;;;;1890.23;379.70;;;13.00;90.70;;;;;;6125053;23;20139;-69
2024/04/01 02:29:21;;;;;;;1791.87;386.77;;;13.00;90.70;;;;;;6126100;23;20183;-69
2024/04/01 02:31:47;;;;;;;1947.47;496.10;;;13.00;90.80;;;;;;6126081;23;20557;-69
2024/04/01 02:34:13;;;;;;;1988.00;451.70;;;13.00;90.80;;;;;;6126202;23;20155;-69
2024/04/01 02:36:39;;;;;;;1918.07;470.17;;;13.00;90.80;;;;;;6125229;23;20596;-69
2024/04/01 02:39:05;;;;;;;1891.23;435.80;;;13.00;90.80;;;;;;6124057;23;20169;-69
2024/04/01 02:41:35;;;;;;;1902.07;482.57;;;13.00;90.80;;;;;;6125673;23;20484;-69
2024/04/01 02:44:01;;;;;;;1742.73;456.00;;;13.00;90.80;;;;;;6124507;23;20213;-69
2024/04/01 02:46:26;;;;;;;1642.57;426.67;;;13.10;90.80;;;;;;6125289;23;20156;-69
2024/04/01 02:48:52;;;;;;;1715.43;486.33;;;13.00;90.80;;;;;;6124364;23;20161;-69
2024/04/01 02:51:18;;;;;;;1434.57;515.03;;;13.00;90.90;;;;;;6124414;23;20213;-69
2024/04/01 02:53:47;;;;;;;1282.00;475.03;;;13.00;90.90;;;;;;6125788;23;20190;-69
2024/04/01 02:56:16;;;;;;;1724.60;555.13;;;13.00;91.00;;;;;;6124937;23;20671;-69
2024/04/01 02:58:45;;;;;;;1792.47;489.00;;;13.00;91.00;;;;;;6125459;23;20152;-69
2024/04/01 03:01:11;;;;;;;1862.47;487.17;;;13.00;91.00;;;;;;6124386;23;20271;-69
2024/04/01 03:03:37;;;;;;;1880.97;460.23;;;13.00;91.00;;;;;;6125635;23;20182;-69
2024/04/01 03:06:03;;;;;;;1834.23;484.07;;;13.00;91.00;;;;;;6124979;23;20608;-69
2024/04/01 03:08:30;;;;;;;1865.23;473.80;;;13.00;91.10;;;;;;6125609;23;20151;-69
2024/04/01 03:11:02;;;;;;;1999.90;577.30;;;12.90;91.10;;;;;;6125474;23;20238;-69
2024/04/01 03:13:29;;;;;;;1999.90;474.47;;;12.80;91.20;;;;;;6150437;23;20634;-69
2024/04/01 03:15:55;;;;;;;1829.80;496.77;;;12.70;91.30;;;;;;6154741;23;20158;-70
2024/04/01 03:18:22;;;;;;;1982.07;475.43;;;12.70;91.40;;;;;;6127981;23;20478;-69
2024/04/01 03:20:48;;;;;;;1635.33;460.87;;;12.70;91.50;;;;;;6155211;23;20589;-69
2024/04/01 03:23:15;;;;;;;1773.37;492.23;;;12.60;91.50;;;;;;6128795;23;20218;-69
2024/04/01 03:25:41;;;;;;;1957.73;512.13;;;12.70;91.60;;;;;;6155140;23;20167;-69
2024/04/01 03:28:07;;;;;;;1949.73;501.27;;;12.60;91.60;;;;;;6153735;23;20151;-69
2024/04/01 03:30:33;;;;;;;1661.37;500.13;;;12.70;91.60;;;;;;6154954;23;20253;-69
2024/04/01 03:32:59;;;;;;;1526.37;472.57;;;12.70;91.60;;;;;;6154929;23;20181;-69
2024/04/01 03:35:26;;;;;;;1755.93;443.13;;;12.80;91.50;;;;;;6155103;23;20155;-69
2024/04/01 03:37:52;;;;;;;1993.70;540.93;;;12.80;91.50;;;;;;6153705;23;20526;-69
2024/04/01 03:40:17;;;;;;;1532.53;438.93;;;12.80;91.50;;;;;;6154836;23;20150;-69
2024/04/01 03:42:43;;;;;;;1679.03;542.33;;;12.80;91.50;;;;;;6154760;23;20174;-69
2024/04/01 03:45:08;;;;;;;1448.30;450.57;;;12.80;91.50;;;;;;6154848;23;20155;-69
2024/04/01 03:47:34;;;;;;;1457.67;482.03;;;12.90;91.60;;;;;;6153723;23;20490;-69
2024/04/01 03:50:00;;;;;;;1471.07;466.67;;;12.90;91.60;;;;;;6154694;23;20179;-69
2024/04/01 03:52:26;;;;;;;1633.40;451.47;;;12.90;91.50;;;;;;6128286;23;20177;-69
2024/04/01 03:54:51;;;;;;;1399.03;447.13;;;12.90;91.50;;;;;;6128908;23;20161;-70
2024/04/01 03:57:17;;;;;;;1783.40;508.83;;;12.90;91.50;;;;;;6153425;23;20151;-68
2024/04/01 03:59:43;;;;;;;1890.07;488.17;;;12.90;91.50;;;;;;6154463;23;20225;-69
2024/04/01 04:02:08;;;;;;;1740.77;498.53;;;13.00;91.50;;;;;;6128588;23;20204;-69
2024/04/01 04:04:35;;;;;;;1991.50;516.77;;;13.00;91.50;;;;;;6154864;23;20147;-69
2024/04/01 04:07:01;;;;;;;1853.37;523.47;;;13.00;91.60;;;;;;6153516;23;20150;-69
2024/04/01 04:09:27;;;;;;;1379.67;487.77;;;12.90;91.60;;;;;;6128282;23;20487;-69
2024/04/01 04:11:54;;;;;;;1653.83;478.47;;;13.00;91.60;;;;;;6154267;23;20185;-69
2024/04/01 04:14:25;;;;;;;1961.87;472.90;;;13.00;91.60;;;;;;6154207;23;20512;-80
2024/04/01 04:16:51;;;;;;;1607.73;543.83;;;12.90;91.60;;;;;;6157874;23;20141;-80
2024/04/01 04:19:18;;;;;;;1580.80;464.63;;;12.80;91.70;;;;;;6133221;23;20159;-80
2024/04/01 04:21:44;;;;;;;1572.23;504.53;;;12.70;91.80;;;;;;6132696;23;20771;-80
2024/04/01 04:24:11;;;;;;;1591.87;509.60;;;12.70;91.80;;;;;;6132853;23;20182;-80
2024/04/01 04:26:37;;;;;;;1641.47;499.33;;;12.70;91.80;;;;;;6131554;23;20162;-80
2024/04/01 04:29:03;;;;;;;1892.13;458.13;;;12.70;91.80;;;;;;6132419;23;20165;-80
2024/04/01 04:31:29;;;;;;;1776.93;483.97;;;12.80;91.80;;;;;;6133073;23;20159;-81
2024/04/01 04:33:55;;;;;;;1999.90;483.37;;;12.70;91.90;;;;;;6132012;23;20626;-80
2024/04/01 04:36:21;;;;;;;1898.53;479.03;;;12.60;92.00;;;;;;6158037;23;20150;-80
2024/04/01 04:38:47;;;;;;;1721.93;481.33;;;12.50;92.00;;;;;;6158067;23;20170;-81
2024/04/01 04:41:16;;;;;;;1269.23;441.33;;;12.40;92.20;;;;;;6158222;23;20185;-80
2024/04/01 04:43:45;;;;;;;1958.00;477.07;;;12.40;92.20;;;;;;6158137;23;20174;-80
2024/04/01 04:46:11;;;;;;;1713.40;440.53;;;12.40;92.30;;;;;;6157799;23;20681;-80
2024/04/01 04:48:49;;;;;;;1591.67;494.33;;;12.50;92.30;;;;;;6131709;23;20245;-80
2024/04/01 04:51:14;;;;;;;1299.37;396.33;;;12.50;92.40;;;;;;6158224;23;20216;-81
2024/04/01 04:53:40;;;;;;;1446.17;445.23;;;12.50;92.30;;;;;;6131886;23;20190;-81
2024/04/01 04:56:06;;;;;;;1498.67;456.70;;;12.50;92.30;;;;;;6158614;23;20147;-81
2024/04/01 04:58:32;;;;;;;1597.33;468.13;;;12.50;92.40;;;;;;6160775;23;20206;-80
2024/04/01 05:00:58;;;;;;;1596.37;444.70;;;12.50;92.40;;;;;;6160675;23;20557;-81
2024/04/01 05:03:23;;;;;;;1799.23;435.77;;;12.50;92.30;;;;;;6135755;23;20177;-81
2024/04/01 05:05:49;;;;;;;1645.73;474.67;;;12.50;92.40;;;;;;6164085;23;20150;-81
2024/04/01 05:08:15;;;;;;;1527.13;473.93;;;12.50;92.40;;;;;;6142904;23;20173;-81
2024/04/01 05:10:42;;;;;;;1805.27;475.33;;;12.50;92.40;;;;;;6144293;23;20178;-81
2024/04/01 05:13:09;;;;;;;1754.10;483.40;;;12.50;92.40;;;;;;6160914;23;20174;-81
2024/04/01 05:15:36;;;;;;;1999.90;547.53;;;12.50;92.40;;;;;;6135585;23;20205;-80
2024/04/01 05:18:03;;;;;;;1950.13;528.27;;;12.50;92.50;;;;;;6134244;23;20185;-80
2024/04/01 05:20:29;;;;;;;1598.37;429.67;;;12.50;92.50;;;;;;6135339;23;20163;-81
2024/04/01 05:22:55;;;;;;;1797.00;459.80;;;12.40;92.60;;;;;;6135680;23;20276;-81
2024/04/01 05:25:21;;;;;;;1841.97;513.70;;;12.40;92.60;;;;;;6161870;23;20150;-80
2024/04/01 05:27:47;;;;;;;1624.67;489.90;;;12.40;92.60;;;;;;6135366;23;20169;-80
2024/04/01 05:30:14;;;;;;;1934.87;510.30;;;12.40;92.70;;;;;;6166613;23;20174;-81
2024/04/01 05:32:39;;;;;;;1999.90;577.63;;;12.40;92.70;;;;;;6139952;23;20186;-81
2024/04/01 05:35:05;;;;;;;1999.90;511.40;;;12.40;92.70;;;;;;6139804;23;20186;-81
2024/04/01 05:37:34;;;;;;;1942.13;469.63;;;12.40;92.70;;;;;;6139605;23;20181;-81
2024/04/01 05:40:00;;;;;;;1729.17;461.43;;;12.40;92.70;;;;;;6140423;23;20168;-81
2024/04/01 05:42:26;;;;;;;1999.90;447.97;;;12.40;92.70;;;;;;6139787;23;20177;-81
2024/04/01 05:44:51;;;;;;;1999.90;495.37;;;12.30;92.70;;;;;;6139611;23;20245;-80
2024/04/01 05:47:17;;;;;;;1985.43;434.47;;;12.30;92.80;;;;;;6138688;23;20158;-82
2024/04/01 05:49:43;;;;;;;1831.57;445.03;;;12.30;92.80;;;;;;6140422;23;20635;-81
2024/04/01 05:52:09;;;;;;;1966.23;394.00;;;12.30;92.80;;;;;;6139618;23;20174;-81
2024/04/01 05:54:34;;;;;;;1841.50;454.53;;;12.30;92.80;;;;;;6140467;23;20174;-81
2024/04/01 05:57:01;;;;;;;1999.90;509.77;;;12.30;92.80;;;;;;6139476;23;20164;-81
2024/04/01 05:59:27;;;;;;;1792.63;419.67;;;12.30;92.80;;;;;;6138424;23;20162;-79
2024/04/01 06:01:56;;;;;;;1684.67;452.33;;;12.30;92.80;;;;;;6138265;23;20162;-79
2024/04/01 06:04:23;;;;;;;1998.67;452.80;;;12.30;92.80;;;;;;6162471;23;20177;-79
2024/04/01 06:06:49;;;;;;;1877.87;772.00;;;12.30;92.80;;;;;;6162902;23;20157;-79
2024/04/01 06:09:15;;;;;;;1540.07;265.53;;;12.30;92.80;;;;;;6137801;23;20162;-80
2024/04/01 06:11:41;;;;;;;1835.63;310.47;;;12.30;92.70;;;;;;6138431;23;20625;-79
2024/04/01 06:14:08;;;;;;;1554.50;323.70;;;12.30;92.80;;;;;;6163057;23;20545;-79
2024/04/01 06:16:35;;;;;;;1967.90;810.70;;;12.30;92.80;;;;;;6161255;23;20174;-79
2024/04/01 06:19:00;;;;;;;1608.27;304.07;;;12.30;92.70;;;;;;6162226;23;20151;-79
2024/04/01 06:21:26;;;;;;;1934.43;795.13;;;12.30;93.00;;;;;;6137357;23;20170;-79
2024/04/01 06:23:51;;;;;;;1999.90;800.13;;;12.30;92.70;;;;;;6136002;23;20182;-79
2024/04/01 06:26:17;;;;;;;1838.83;348.67;;;12.40;93.00;;;;;;6135300;23;20193;-78
2024/04/01 06:28:44;;;;;;;1999.90;815.33;;;12.40;92.60;;;;;;6136266;23;20169;-80
2024/04/01 06:31:10;;;;;;;1999.90;999.90;;;12.40;92.60;;;;;;6136758;23;20217;-78
2024/04/01 06:33:36;;;;;;;1940.20;795.17;;;12.40;92.50;;;;;;6161891;23;20174;-79
2024/04/01 06:36:03;;;;;;;1985.10;791.50;;;12.40;92.50;;;;;;6161855;23;20485;-79
2024/04/01 06:38:29;;;;;;;1797.03;768.47;;;12.40;92.50;;;;;;6136100;23;20151;-78
2024/04/01 06:40:56;;;;;;;1844.97;773.93;;;12.40;92.50;;;;;;6136156;23;20594;-79
2024/04/01 06:43:22;;;;;;;1835.87;773.07;;;12.40;92.50;;;;;;6136208;23;20193;-79
2024/04/01 06:45:58;;;;;;;1817.27;763.43;;;12.40;92.40;;;;;;6136653;23;20158;-79
2024/04/01 06:48:25;;;;;;;1999.90;999.90;;;12.50;92.40;;;;;;6135903;23;20169;-79
2024/04/01 06:50:51;;;;;;;1999.90;999.90;;;12.50;92.30;;;;;;6136880;23;20178;-79
2024/04/01 06:53:17;;;;;;;1999.90;999.90;;;12.50;92.30;;;;;;6136902;23;20180;-80
2024/04/01 06:55:49;;;;;;;1811.83;775.03;;;12.40;92.30;;;;;;6162698;23;20146;-80
2024/04/01 06:58:15;;;;;;;1779.43;773.97;;;12.40;92.30;;;;;;6135587;23;20174;-80
2024/04/01 07:00:41;;;;;;;1999.90;999.90;;;12.50;92.30;;;;;;6136516;23;20162;-80
2024/04/01 07:03:07;;;;;;;1999.90;999.90;;;12.50;92.20;;;;;;6135631;23;20593;-81
2024/04/01 07:05:33;;;;;;;1999.90;999.90;;;12.40;92.20;;;;;;6135898;23;20479;-80
2024/04/01 07:08:00;;;;;;;1999.90;999.90;;;12.40;92.30;;;;;;6133464;23;20217;-81
2024/04/01 07:10:26;;;;;;;1999.90;999.90;;;12.30;92.20;;;;;;6134944;23;20269;-81
2024/04/01 07:12:52;;;;;;;1999.90;999.90;;;12.20;92.30;;;;;;6135181;23;20154;-82
2024/04/01 07:15:18;;;;;;;1782.37;768.03;;;12.10;92.40;;;;;;6160164;23;20213;-82
2024/04/01 07:17:43;;;;;;;1999.90;999.90;;;12.10;92.40;;;;;;6133921;23;20154;-82
2024/04/01 07:20:09;;;;;;;1999.90;999.90;;;12.10;92.40;;;;;;6135538;23;20165;-82
2024/04/01 07:22:36;;;;;;;1999.90;999.90;;;12.10;92.50;;;;;;6162455;23;20603;-80
2024/04/01 07:25:04;;;;;;;1999.90;999.90;;;12.00;92.50;;;;;;6134895;23;20183;-80
2024/04/01 07:27:34;;;;;;;1999.90;999.90;;;12.00;92.50;;;;;;6159853;23;20165;-79
2024/04/01 07:30:03;;;;;;;1999.90;999.90;;;12.00;92.60;;;;;;6135146;23;20177;-79
2024/04/01 07:32:29;;;;;;;1782.47;769.77;;;12.00;92.60;;;;;;6135096;23;20201;-79
2024/04/01 07:34:56;;;;;;;1999.90;807.43;;;12.00;92.60;;;;;;6160433;23;20193;-79
2024/04/01 07:37:22;;;;;;;1999.90;999.90;;;12.00;92.70;;;;;;6160548;23;20157;-79
2024/04/01 07:39:48;;;;;;;1999.90;999.90;;;12.00;92.70;;;;;;6134949;23;20165;-79
2024/04/01 07:42:14;;;;;;;1999.90;999.90;;;12.00;92.60;;;;;;6161079;23;20159;-79
2024/04/01 07:44:39;;;;;;;1928.67;803.80;;;12.00;92.60;;;;;;6134847;23;20178;-80
2024/04/01 07:47:05;;;;;;;1999.90;999.90;;;12.00;92.60;;;;;;6133353;23;20158;-79
2024/04/01 07:49:31;;;;;;;1999.90;999.90;;;12.10;92.50;;;;;;6134610;23;20202;-79
2024/04/01 07:51:57;;;;;;;1999.90;999.90;;;12.10;92.50;;;;;;6135451;23;20162;-78
2024/04/01 07:54:24;;;;;;;1999.90;999.90;;;12.20;92.50;;;;;;6135418;23;20185;-79
2024/04/01 07:56:50;;;;;;;1884.67;779.43;;;12.30;92.50;;;;;;6134092;23;20158;-80
2024/04/01 07:59:15;;;;;;;1964.27;803.73;;;12.50;92.40;;;;;;6135373;23;20209;-80
2024/04/01 08:01:41;;;;;;;1999.90;999.90;;;12.60;92.30;;;;;;6134825;23;20485;-79
2024/04/01 08:04:07;;;;;;;1828.07;778.80;;;12.70;92.20;;;;;;6134971;23;20181;-80
2024/04/01 08:06:33;;;;;;;1817.37;762.90;;;12.80;92.10;;;;;;6134036;23;20265;-79
2024/04/01 08:08:59;;;;;;;1734.93;752.47;;;12.90;92.10;;;;;;6135073;23;20155;-79
2024/04/01 08:11:24;;;;;;;1985.80;785.97;;;13.00;92.00;;;;;;6135165;23;20240;-79
2024/04/01 08:13:50;;;;;;;1911.13;796.93;;;13.10;92.00;;;;;;6130054;23;20187;-80
2024/04/01 08:16:16;;;;;;;1909.10;796.40;;;13.30;91.90;;;;;;6130825;23;20188;-79
2024/04/01 08:18:41;;;;;;;1999.90;999.90;;;13.40;91.80;;;;;;6130004;23;20195;-80
2024/04/01 08:21:07;;;;;;;1999.90;999.90;;;13.60;91.70;;;;;;6129578;23;20217;-80
2024/04/01 08:23:34;;;;;;;1783.13;748.37;;;13.70;91.60;;;;;;6130136;23;20186;-80
2024/04/01 08:26:00;;;;;;;1738.60;753.80;;;13.80;91.50;;;;;;6129757;23;20198;-80
2024/04/01 08:28:26;;;;;;;1901.10;786.40;;;14.00;91.40;;;;;;6130367;23;20182;-80
2024/04/01 08:30:51;;;;;;;1909.10;786.60;;;14.10;91.30;;;;;;6130715;23;20190;-81
2024/04/01 08:33:17;;;;;;;1999.90;999.90;;;14.20;91.20;;;;;;6129869;23;20175;-80
2024/04/01 08:35:43;;;;;;;1999.90;999.90;;;14.30;91.10;;;;;;6130590;23;20158;-80
2024/04/01 08:38:09;;;;;;;1852.07;782.40;;;14.30;91.00;;;;;;6127799;23;20214;-80
2024/04/01 08:40:45;;;;;;;1999.90;999.90;;;14.40;91.00;;;;;;6130280;23;20662;-79
2024/04/01 08:43:16;;;;;;;1999.90;999.90;;;14.30;91.00;;;;;;6152245;23;20139;-78
2024/04/01 08:45:44;;;;;;;1999.90;999.90;;;14.20;90.90;;;;;;6152961;23;20139;-79
2024/04/01 08:48:12;;;;;;;1999.90;999.90;;;14.00;91.00;;;;;;6151658;23;20161;-78
2024/04/01 08:50:46;;;;;;;1999.90;999.90;;;13.80;91.10;;;;;;6139573;23;20186;-80
2024/04/01 08:53:16;;;;;;;1999.90;999.90;;;13.80;91.20;;;;;;6130959;23;20162;-81
2024/04/01 08:55:42;;;;;;;1826.53;783.03;;;13.80;91.30;;;;;;6130650;23;20150;-81
2024/04/01 08:58:08;;;;;;;1921.63;788.37;;;13.80;91.30;;;;;;6128986;23;20234;-81
2024/04/01 09:00:34;;;;;;;1833.03;786.80;;;13.80;91.30;;;;;;6131290;23;20159;-80
2024/04/01 09:03:00;;;;;;;1999.90;999.90;;;13.90;91.30;;;;;;6130712;23;20170;-81
2024/04/01 09:05:26;;;;;;;1999.90;999.90;;;13.90;91.20;;;;;;6132393;23;20513;-80
2024/04/01 09:07:52;;;;;;;1999.90;999.90;;;13.90;91.20;;;;;;6129589;23;20211;-80
2024/04/01 09:10:22;;;;;;;1999.90;999.90;;;13.80;91.20;;;;;;6130415;23;20186;-80
2024/04/01 09:12:53;;;;;;;1999.90;999.90;;;13.70;91.20;;;;;;6130638;23;20595;-80
2024/04/01 09:15:20;;;;;;;1999.90;999.90;;;13.60;91.30;;;;;;6161026;23;20218;-82
2024/04/01 09:17:46;;;;;;;1999.90;999.90;;;13.60;91.40;;;;;;6133959;23;20162;-80
2024/04/01 09:20:12;;;;;;;1999.90;999.90;;;13.60;91.40;;;;;;6134721;23;20161;-81
2024/04/01 09:22:38;;;;;;;1999.90;999.90;;;13.60;91.50;;;;;;6160834;23;20158;-80
2024/04/01 09:25:04;;;;;;;1999.90;999.90;;;13.60;91.40;;;;;;6161178;23;20184;-81
2024/04/01 09:27:30;;;;;;;1955.70;809.57;;;13.60;91.40;;;;;;6134339;23;20158;-79
2024/04/01 09:29:56;;;;;;;1204.17;313.63;;;13.70;91.60;;;;;;6134416;23;20200;-81
2024/04/01 09:32:21;;;;;;;1999.90;831.47;;;13.90;91.50;;;;;;6135104;23;20178;-81
2024/04/01 09:34:47;;;;;;;1999.90;447.57;;;14.20;91.50;;;;;;6135290;23;20198;-81
2024/04/01 09:37:13;;;;;;;1999.90;999.90;;;14.40;91.40;;;;;;6134463;23;20164;-81
2024/04/01 09:39:40;;;;;;;1778.63;766.53;;;14.50;91.20;;;;;;6160499;23;20181;-81
2024/04/01 09:42:09;;;;;;;1999.90;999.90;;;14.50;91.10;;;;;;6135726;23;20693;-80
2024/04/01 09:44:35;;;;;;;1848.70;775.10;;;14.50;91.00;;;;;;6161451;23;20177;-81
2024/04/01 09:47:02;;;;;;;1999.90;999.90;;;14.40;91.10;;;;;;6133725;23;20158;-82
2024/04/01 09:49:30;;;;;;;1999.90;999.90;;;14.30;91.10;;;;;;6134887;23;20201;-82
2024/04/01 09:51:56;;;;;;;1999.90;999.90;;;14.10;91.00;;;;;;6136671;23;20614;-81
2024/04/01 09:54:21;;;;;;;1999.90;999.90;;;14.00;91.10;;;;;;6136805;23;20174;-81
2024/04/01 09:57:31;;;;;;;1999.90;999.90;;;13.90;91.20;;;;;;6136043;23;20185;-81
2024/04/01 10:00:16;;;;;;;1999.90;999.90;;;13.90;91.20;;;;;;6136651;23;20591;-82
2024/04/01 10:03:07;;;;;;;1985.87;801.83;;;13.90;91.20;;;;;;6162532;23;20151;-80
2024/04/01 10:06:01;;;;;;;1999.90;999.90;;;13.90;91.30;;;;;;6137515;23;20143;-81
2024/04/01 10:09:08;;;;;;;1999.90;999.90;;;14.00;91.20;;;;;;6137209;23;20229;-81
2024/04/01 10:12:07;;;;;;;1999.90;999.90;;;14.00;91.20;;;;;;6094878;23;20170;-81
2024/04/01 10:14:48;;;;;;;1937.90;813.27;;;13.90;91.10;;;;;;6115559;23;20199;-70
2024/04/01 10:17:49;;;;;;;1999.90;999.90;;;13.90;91.10;;;;;;6096265;23;20511;-69
2024/04/01 10:20:32;;;;;;;1999.90;999.90;;;13.90;91.20;;;;;;6065419;23;20509;-69
2024/04/01 10:23:33;;;;;;;1999.90;999.90;;;13.90;91.20;;;;;;6094393;23;20160;-69
2024/04/01 10:26:56;;;;;;;1999.90;999.90;;;13.90;91.20;;;;;;6056113;23;20168;-70
2024/04/01 10:29:49;;;;;;;1999.90;999.90;;;14.00;91.10;;;;;;5980253;24;20163;-70
2024/04/01 10:32:24;;;;;;;1999.90;999.90;;;14.10;91.10;;;;;;6063834;23;20603;-69
2024/04/01 10:35:20;;;;;;;1999.90;656.33;;;14.00;91.00;;;;;;6067622;23;20175;-69
2024/04/01 10:38:05;;;;;;;1999.90;999.90;;;13.90;91.00;;;;;;6066915;23;20164;-69
2024/04/01 10:40:53;;;;;;;1999.90;999.90;;;13.80;91.00;;;;;;6067930;23;20531;-70
2024/04/01 10:43:31;;;;;;;1999.90;999.90;;;13.70;91.20;;;;;;6067186;23;20590;-70
2024/04/01 10:46:05;;;;;;;1999.90;999.90;;;13.70;91.20;;;;;;6067898;23;20490;-70
2024/04/01 10:48:44;;;;;;;1999.90;999.90;;;13.70;91.10;;;;;;6067601;23;20567;-70
2024/04/01 10:51:28;;;;;;;1999.90;999.90;;;13.80;91.10;;;;;;6067710;23;20545;-70
2024/04/01 10:54:04;;;;;;;1999.90;999.90;;;13.80;91.30;;;;;;6066184;23;20175;-70
2024/04/01 10:56:52;;;;;;;1999.90;999.90;;;13.90;91.00;;;;;;6067372;23;20477;-70
2024/04/01 10:59:55;;;;;;;1999.90;999.90;;;13.90;91.30;;;;;;6067759;23;20148;-70
2024/04/01 11:02:58;;;;;;;1999.90;999.90;;;14.00;91.00;;;;;;6065919;23;20875;-70
2024/04/01 11:05:42;;;;;;;1999.90;919.83;;;14.00;90.90;;;;;;6065901;23;20174;-70
2024/04/01 11:08:45;;;;;;;1999.90;999.90;;;14.00;90.90;;;;;;6066623;23;20137;-70
2024/04/01 11:11:42;;;;;;;1999.90;999.90;;;14.00;90.80;;;;;;6066449;23;20172;-70
2024/04/01 11:14:10;;;;;;;1999.90;999.90;;;14.10;90.60;;;;;;6065996;23;20645;-70
2024/04/01 11:16:41;;;;;;;1999.90;999.90;;;14.10;90.30;;;;;;6064860;23;20160;-70
2024/04/01 11:19:46;;;;;;;1999.90;999.90;;;14.10;90.30;;;;;;6066128;23;20165;-71
2024/04/01 11:22:20;;;;;;;1999.90;999.90;;;14.10;90.10;;;;;;6067373;23;20223;-71
2024/04/01 11:25:13;;;;;;;1999.90;999.90;;;14.30;90.20;;;;;;6067834;23;20176;-71
2024/04/01 11:28:08;;;;;;;1999.90;677.57;;;14.50;90.10;;;;;;6066607;23;20141;-70
2024/04/01 11:30:35;;;;;;;1999.90;963.47;;;14.60;89.80;;;;;;6062040;23;20267;-71
2024/04/01 11:33:08;;;;;;;1999.90;999.90;;;14.80;89.30;;;;;;6067683;23;20158;-70
2024/04/01 11:35:55;;;;;;;1999.90;613.23;;;14.90;89.10;;;;;;6067342;23;20546;-69
2024/04/01 11:38:58;;;;;;;1999.90;554.93;;;14.90;88.60;;;;;;6064817;23;20216;-70
2024/04/01 11:41:25;;;;;;;1999.90;819.50;;;14.80;88.60;;;;;;6066081;23;20160;-70
2024/04/01 11:43:51;;;;;;;1999.90;999.90;;;14.70;88.30;;;;;;6066066;23;20184;-71
2024/04/01 11:46:18;;;;;;;1999.90;999.90;;;14.70;88.60;;;;;;6066424;23;20495;-70
2024/04/01 11:48:52;;;;;;;1999.90;999.90;;;14.80;88.70;;;;;;6067453;23;20183;-70
2024/04/01 11:51:35;;;;;;;1999.90;999.90;;;14.80;88.60;;;;;;6067454;23;20602;-71
2024/04/01 11:54:02;;;;;;;1999.90;999.90;;;14.80;88.70;;;;;;6067582;23;20188;-71
2024/04/01 11:56:41;;;;;;;1999.90;999.90;;;14.90;88.70;;;;;;6066614;23;20176;-71
2024/04/01 11:59:10;;;;;;;1999.90;999.90;;;15.00;88.90;;;;;;6065720;23;20153;-71
2024/04/01 12:01:38;;;;;;;1999.90;999.90;;;14.90;88.30;;;;;;6067372;23;20156;-71
2024/04/01 12:04:04;;;;;;;1999.90;999.90;;;14.90;88.40;;;;;;6066880;23;20177;-71
2024/04/01 12:06:31;;;;;;;1999.90;999.90;;;14.90;88.40;;;;;;6065890;23;20161;-71
2024/04/01 12:08:59;;;;;;;1999.90;612.13;;;14.80;88.20;;;;;;6067130;23;20164;-70